sensor_id;sensor_type;location;lat;lon;timestamp;temperature;humidity
774;DHT22;370;48.810;9.150;2023-08-30T00:01:58;13.80;67.30
774;DHT22;370;48.810;9.150;2023-08-30T00:04:25;13.90;67.20
774;DHT22;370;48.810;9.150;2023-08-30T00:06:51;13.90;67.20
774;DHT22;370;48.810;9.150;2023-08-30T00:09:18;14.00;66.90
774;DHT22;370;48.810;9.150;2023-08-30T00:11:45;14.00;66.40
774;DHT22;370;48.810;9.150;2023-08-30T00:14:11;14.00;65.80
774;DHT22;370;48.810;9.150;2023-08-30T00:16:39;14.00;64.40
774;DHT22;370;48.810;9.150;2023-08-30T00:19:06;14.00;65.00
774;DHT22;370;48.810;9.150;2023-08-30T00:21:33;14.00;64.00
774;DHT22;370;48.810;9.150;2023-08-30T00:23:59;14.00;63.00
774;DHT22;370;48.810;9.150;2023-08-30T00:26:26;14.00;64.00
774;DHT22;370;48.810;9.150;2023-08-30T00:28:52;14.00;64.00
774;DHT22;370;48.810;9.150;2023-08-30T00:31:19;14.00;64.10
774;DHT22;370;48.810;9.150;2023-08-30T00:33:48;14.00;64.00
774;DHT22;370;48.810;9.150;2023-08-30T00:36:15;14.00;64.00
774;DHT22;370;48.810;9.150;2023-08-30T00:38:42;14.00;64.00
774;DHT22;370;48.810;9.150;2023-08-30T00:41:09;14.10;64.20
774;DHT22;370;48.810;9.150;2023-08-30T00:43:36;14.10;64.10
774;DHT22;370;48.810;9.150;2023-08-30T00:46:03;14.00;64.00
774;DHT22;370;48.810;9.150;2023-08-30T00:48:30;14.10;63.90
774;DHT22;370;48.810;9.150;2023-08-30T00:50:58;14.10;62.30
774;DHT22;370;48.810;9.150;2023-08-30T00:53:25;14.10;61.50
774;DHT22;370;48.810;9.150;2023-08-30T00:55:51;14.10;61.10
774;DHT22;370;48.810;9.150;2023-08-30T00:58:18;14.10;62.20
774;DHT22;370;48.810;9.150;2023-08-30T01:00:45;14.10;62.60
774;DHT22;370;48.810;9.150;2023-08-30T01:03:13;14.10;60.90
774;DHT22;370;48.810;9.150;2023-08-30T01:05:39;14.10;60.10
774;DHT22;370;48.810;9.150;2023-08-30T01:08:08;14.10;60.00
774;DHT22;370;48.810;9.150;2023-08-30T01:10:44;14.10;59.20
774;DHT22;370;48.810;9.150;2023-08-30T01:13:18;14.10;59.00
774;DHT22;370;48.810;9.150;2023-08-30T01:15:47;14.10;58.00
774;DHT22;370;48.810;9.150;2023-08-30T01:18:17;14.00;57.60
774;DHT22;370;48.810;9.150;2023-08-30T01:20:45;13.80;59.20
774;DHT22;370;48.810;9.150;2023-08-30T01:23:22;13.70;60.70
774;DHT22;370;48.810;9.150;2023-08-30T01:25:57;13.70;63.70
774;DHT22;370;48.810;9.150;2023-08-30T01:28:28;13.70;63.80
774;DHT22;370;48.810;9.150;2023-08-30T01:30:58;13.70;62.00
774;DHT22;370;48.810;9.150;2023-08-30T01:33:25;13.70;60.70
774;DHT22;370;48.810;9.150;2023-08-30T01:35:54;13.70;60.00
774;DHT22;370;48.810;9.150;2023-08-30T01:38:22;13.60;59.20
774;DHT22;370;48.810;9.150;2023-08-30T01:40:50;13.60;58.70
774;DHT22;370;48.810;9.150;2023-08-30T01:43:18;13.60;58.60
774;DHT22;370;48.810;9.150;2023-08-30T01:45:47;13.50;58.80
774;DHT22;370;48.810;9.150;2023-08-30T01:48:15;13.40;59.10
774;DHT22;370;48.810;9.150;2023-08-30T01:50:43;13.40;59.80
774;DHT22;370;48.810;9.150;2023-08-30T01:53:12;13.30;60.10
774;DHT22;370;48.810;9.150;2023-08-30T01:55:39;13.30;59.50
774;DHT22;370;48.810;9.150;2023-08-30T01:58:06;13.30;59.90
774;DHT22;370;48.810;9.150;2023-08-30T02:00:34;13.20;59.60
774;DHT22;370;48.810;9.150;2023-08-30T02:03:08;13.20;60.50
774;DHT22;370;48.810;9.150;2023-08-30T02:05:38;13.20;60.20
774;DHT22;370;48.810;9.150;2023-08-30T02:08:12;13.10;61.40
774;DHT22;370;48.810;9.150;2023-08-30T02:10:43;13.10;61.20
774;DHT22;370;48.810;9.150;2023-08-30T02:13:12;13.10;61.70
774;DHT22;370;48.810;9.150;2023-08-30T02:15:39;13.10;60.50
774;DHT22;370;48.810;9.150;2023-08-30T02:18:10;13.00;60.10
774;DHT22;370;48.810;9.150;2023-08-30T02:20:36;13.00;61.00
774;DHT22;370;48.810;9.150;2023-08-30T02:23:03;13.00;61.80
774;DHT22;370;48.810;9.150;2023-08-30T02:28:52;13.00;61.70
774;DHT22;370;48.810;9.150;2023-08-30T02:31:19;12.90;61.10
774;DHT22;370;48.810;9.150;2023-08-30T02:33:47;12.90;61.40
774;DHT22;370;48.810;9.150;2023-08-30T02:36:14;12.90;61.10
774;DHT22;370;48.810;9.150;2023-08-30T02:38:40;12.90;61.70
774;DHT22;370;48.810;9.150;2023-08-30T02:41:07;12.80;62.30
774;DHT22;370;48.810;9.150;2023-08-30T02:43:35;12.80;61.00
774;DHT22;370;48.810;9.150;2023-08-30T02:46:03;12.80;61.00
774;DHT22;370;48.810;9.150;2023-08-30T02:48:31;12.70;60.50
774;DHT22;370;48.810;9.150;2023-08-30T02:50:59;12.70;60.40
774;DHT22;370;48.810;9.150;2023-08-30T02:53:25;12.60;60.20
774;DHT22;370;48.810;9.150;2023-08-30T02:55:52;12.60;59.70
774;DHT22;370;48.810;9.150;2023-08-30T02:58:21;12.60;59.90
774;DHT22;370;48.810;9.150;2023-08-30T03:00:47;12.60;59.50
774;DHT22;370;48.810;9.150;2023-08-30T03:03:14;12.50;60.00
774;DHT22;370;48.810;9.150;2023-08-30T03:05:41;12.50;60.10
774;DHT22;370;48.810;9.150;2023-08-30T03:08:09;12.40;60.30
774;DHT22;370;48.810;9.150;2023-08-30T03:10:36;12.40;61.30
774;DHT22;370;48.810;9.150;2023-08-30T03:13:03;12.50;62.60
774;DHT22;370;48.810;9.150;2023-08-30T03:15:31;12.50;62.80
774;DHT22;370;48.810;9.150;2023-08-30T03:17:58;12.50;64.30
774;DHT22;370;48.810;9.150;2023-08-30T03:20:25;12.50;66.20
774;DHT22;370;48.810;9.150;2023-08-30T03:22:54;12.60;69.00
774;DHT22;370;48.810;9.150;2023-08-30T03:25:23;12.70;69.00
774;DHT22;370;48.810;9.150;2023-08-30T03:27:50;12.80;68.50
774;DHT22;370;48.810;9.150;2023-08-30T03:30:16;12.80;67.60
774;DHT22;370;48.810;9.150;2023-08-30T03:32:43;12.80;67.50
774;DHT22;370;48.810;9.150;2023-08-30T03:35:10;12.90;68.30
774;DHT22;370;48.810;9.150;2023-08-30T03:37:37;13.00;67.90
774;DHT22;370;48.810;9.150;2023-08-30T03:40:05;13.10;67.40
774;DHT22;370;48.810;9.150;2023-08-30T03:42:34;13.20;65.70
774;DHT22;370;48.810;9.150;2023-08-30T03:45:00;13.20;64.60
774;DHT22;370;48.810;9.150;2023-08-30T03:47:27;13.20;63.60
774;DHT22;370;48.810;9.150;2023-08-30T03:49:54;13.30;62.60
774;DHT22;370;48.810;9.150;2023-08-30T03:52:21;13.40;62.10
774;DHT22;370;48.810;9.150;2023-08-30T03:54:47;13.40;61.30
774;DHT22;370;48.810;9.150;2023-08-30T03:57:14;13.50;59.50
774;DHT22;370;48.810;9.150;2023-08-30T03:59:42;13.50;58.50
774;DHT22;370;48.810;9.150;2023-08-30T04:02:09;13.50;56.20
774;DHT22;370;48.810;9.150;2023-08-30T04:04:36;13.60;56.00
774;DHT22;370;48.810;9.150;2023-08-30T04:07:03;13.60;55.30
774;DHT22;370;48.810;9.150;2023-08-30T04:09:29;13.60;54.70
774;DHT22;370;48.810;9.150;2023-08-30T04:11:56;13.50;57.40
774;DHT22;370;48.810;9.150;2023-08-30T04:14:23;13.50;60.40
774;DHT22;370;48.810;9.150;2023-08-30T04:16:51;13.60;59.80
774;DHT22;370;48.810;9.150;2023-08-30T04:19:18;13.60;57.00
774;DHT22;370;48.810;9.150;2023-08-30T04:21:45;13.70;57.20
774;DHT22;370;48.810;9.150;2023-08-30T04:24:12;13.70;57.00
774;DHT22;370;48.810;9.150;2023-08-30T04:26:39;13.80;56.20
774;DHT22;370;48.810;9.150;2023-08-30T04:29:06;13.80;55.00
774;DHT22;370;48.810;9.150;2023-08-30T04:31:33;13.80;54.00
774;DHT22;370;48.810;9.150;2023-08-30T04:34:01;13.80;54.00
774;DHT22;370;48.810;9.150;2023-08-30T04:36:28;13.90;54.90
774;DHT22;370;48.810;9.150;2023-08-30T04:38:55;13.90;55.20
774;DHT22;370;48.810;9.150;2023-08-30T04:41:22;13.90;54.10
774;DHT22;370;48.810;9.150;2023-08-30T04:43:48;13.90;54.10
774;DHT22;370;48.810;9.150;2023-08-30T04:46:15;13.90;52.70
774;DHT22;370;48.810;9.150;2023-08-30T04:48:42;14.00;52.20
774;DHT22;370;48.810;9.150;2023-08-30T04:51:10;13.90;51.40
774;DHT22;370;48.810;9.150;2023-08-30T04:53:37;14.00;51.00
774;DHT22;370;48.810;9.150;2023-08-30T04:56:10;14.00;50.00
774;DHT22;370;48.810;9.150;2023-08-30T04:58:37;14.10;50.20
774;DHT22;370;48.810;9.150;2023-08-30T05:01:04;14.10;49.30
774;DHT22;370;48.810;9.150;2023-08-30T05:03:32;14.10;49.00
774;DHT22;370;48.810;9.150;2023-08-30T05:05:59;14.10;50.20
774;DHT22;370;48.810;9.150;2023-08-30T05:08:27;14.20;48.80
774;DHT22;370;48.810;9.150;2023-08-30T05:10:54;14.20;52.00
774;DHT22;370;48.810;9.150;2023-08-30T05:13:20;14.20;49.40
774;DHT22;370;48.810;9.150;2023-08-30T05:15:47;14.30;46.70
774;DHT22;370;48.810;9.150;2023-08-30T05:18:14;14.30;49.00
774;DHT22;370;48.810;9.150;2023-08-30T05:20:41;14.30;46.20
774;DHT22;370;48.810;9.150;2023-08-30T05:23:08;14.40;44.60
774;DHT22;370;48.810;9.150;2023-08-30T05:25:36;14.50;44.70
774;DHT22;370;48.810;9.150;2023-08-30T05:28:03;14.60;41.60
774;DHT22;370;48.810;9.150;2023-08-30T05:30:30;14.60;40.60
774;DHT22;370;48.810;9.150;2023-08-30T05:32:56;14.70;41.00
774;DHT22;370;48.810;9.150;2023-08-30T05:35:23;14.70;40.30
774;DHT22;370;48.810;9.150;2023-08-30T05:37:50;14.80;41.70
774;DHT22;370;48.810;9.150;2023-08-30T05:40:17;14.80;43.00
774;DHT22;370;48.810;9.150;2023-08-30T05:42:45;14.70;40.20
774;DHT22;370;48.810;9.150;2023-08-30T05:45:12;14.70;40.20
774;DHT22;370;48.810;9.150;2023-08-30T05:47:39;14.80;38.90
774;DHT22;370;48.810;9.150;2023-08-30T05:50:06;14.90;38.20
774;DHT22;370;48.810;9.150;2023-08-30T05:52:33;14.80;42.20
774;DHT22;370;48.810;9.150;2023-08-30T05:55:00;14.90;40.20
774;DHT22;370;48.810;9.150;2023-08-30T05:57:27;14.90;38.90
774;DHT22;370;48.810;9.150;2023-08-30T06:00:00;14.90;38.80
774;DHT22;370;48.810;9.150;2023-08-30T06:02:27;14.90;37.00
774;DHT22;370;48.810;9.150;2023-08-30T06:04:53;14.80;38.60
774;DHT22;370;48.810;9.150;2023-08-30T06:07:20;14.80;38.80
774;DHT22;370;48.810;9.150;2023-08-30T06:09:47;14.90;39.30
774;DHT22;370;48.810;9.150;2023-08-30T06:12:14;14.80;36.60
774;DHT22;370;48.810;9.150;2023-08-30T06:14:42;14.80;36.40
774;DHT22;370;48.810;9.150;2023-08-30T06:17:16;15.00;34.80
774;DHT22;370;48.810;9.150;2023-08-30T06:19:44;15.10;34.90
774;DHT22;370;48.810;9.150;2023-08-30T06:22:10;15.20;35.00
774;DHT22;370;48.810;9.150;2023-08-30T06:24:38;15.50;31.80
774;DHT22;370;48.810;9.150;2023-08-30T06:27:04;15.60;30.80
774;DHT22;370;48.810;9.150;2023-08-30T06:29:31;15.80;28.10
774;DHT22;370;48.810;9.150;2023-08-30T06:31:58;16.00;26.30
774;DHT22;370;48.810;9.150;2023-08-30T06:34:26;16.20;26.40
774;DHT22;370;48.810;9.150;2023-08-30T06:36:53;16.40;25.50
774;DHT22;370;48.810;9.150;2023-08-30T06:39:20;16.50;22.50
774;DHT22;370;48.810;9.150;2023-08-30T06:41:46;16.60;22.20
774;DHT22;370;48.810;9.150;2023-08-30T06:44:13;16.80;18.80
774;DHT22;370;48.810;9.150;2023-08-30T06:46:41;16.90;16.50
774;DHT22;370;48.810;9.150;2023-08-30T06:49:07;16.90;17.00
774;DHT22;370;48.810;9.150;2023-08-30T06:51:36;16.90;14.10
774;DHT22;370;48.810;9.150;2023-08-30T06:54:03;17.10;14.80
774;DHT22;370;48.810;9.150;2023-08-30T06:56:30;16.90;12.90
774;DHT22;370;48.810;9.150;2023-08-30T06:58:57;16.90;14.60
774;DHT22;370;48.810;9.150;2023-08-30T07:01:23;16.90;14.40
774;DHT22;370;48.810;9.150;2023-08-30T07:03:50;16.90;13.40
774;DHT22;370;48.810;9.150;2023-08-30T07:06:17;16.90;14.60
774;DHT22;370;48.810;9.150;2023-08-30T07:08:45;16.90;14.60
774;DHT22;370;48.810;9.150;2023-08-30T07:11:12;16.80;17.50
774;DHT22;370;48.810;9.150;2023-08-30T07:13:38;16.60;17.30
774;DHT22;370;48.810;9.150;2023-08-30T07:16:05;16.60;17.90
774;DHT22;370;48.810;9.150;2023-08-30T07:18:32;16.70;16.10
774;DHT22;370;48.810;9.150;2023-08-30T07:20:59;16.80;16.50
774;DHT22;370;48.810;9.150;2023-08-30T07:23:25;16.80;16.40
774;DHT22;370;48.810;9.150;2023-08-30T07:25:53;16.70;15.00
774;DHT22;370;48.810;9.150;2023-08-30T07:28:20;16.50;14.10
774;DHT22;370;48.810;9.150;2023-08-30T07:30:47;16.70;15.50
774;DHT22;370;48.810;9.150;2023-08-30T07:33:14;16.70;15.40
774;DHT22;370;48.810;9.150;2023-08-30T07:35:40;16.80;15.10
774;DHT22;370;48.810;9.150;2023-08-30T07:38:07;16.80;14.00
774;DHT22;370;48.810;9.150;2023-08-30T07:40:34;16.90;14.20
774;DHT22;370;48.810;9.150;2023-08-30T07:43:02;16.90;14.80
774;DHT22;370;48.810;9.150;2023-08-30T07:45:29;16.90;11.90
774;DHT22;370;48.810;9.150;2023-08-30T07:47:55;16.90;10.90
774;DHT22;370;48.810;9.150;2023-08-30T07:50:22;16.80;12.50
774;DHT22;370;48.810;9.150;2023-08-30T07:52:49;16.90;12.20
774;DHT22;370;48.810;9.150;2023-08-30T07:55:16;16.90;11.40
774;DHT22;370;48.810;9.150;2023-08-30T07:57:42;17.00;11.60
774;DHT22;370;48.810;9.150;2023-08-30T08:00:12;17.10;11.80
774;DHT22;370;48.810;9.150;2023-08-30T08:02:39;17.20;10.90
774;DHT22;370;48.810;9.150;2023-08-30T08:05:07;17.40;10.10
774;DHT22;370;48.810;9.150;2023-08-30T08:07:37;17.50;11.30
774;DHT22;370;48.810;9.150;2023-08-30T08:10:05;17.80;10.30
774;DHT22;370;48.810;9.150;2023-08-30T08:12:33;17.90;9.90
774;DHT22;370;48.810;9.150;2023-08-30T08:15:00;18.10;8.20
774;DHT22;370;48.810;9.150;2023-08-30T08:17:29;18.20;7.20
774;DHT22;370;48.810;9.150;2023-08-30T08:19:55;18.40;5.50
774;DHT22;370;48.810;9.150;2023-08-30T08:22:22;18.60;5.40
774;DHT22;370;48.810;9.150;2023-08-30T08:24:49;18.80;2.00
774;DHT22;370;48.810;9.150;2023-08-30T08:27:17;18.70;1.90
774;DHT22;370;48.810;9.150;2023-08-30T08:29:43;18.50;2.70
774;DHT22;370;48.810;9.150;2023-08-30T08:32:10;18.70;2.00
774;DHT22;370;48.810;9.150;2023-08-30T08:34:38;18.60;3.10
774;DHT22;370;48.810;9.150;2023-08-30T08:37:06;18.90;2.00
774;DHT22;370;48.810;9.150;2023-08-30T08:39:33;19.40;1.00
774;DHT22;370;48.810;9.150;2023-08-30T08:42:01;20.00;1.00
774;DHT22;370;48.810;9.150;2023-08-30T08:44:31;20.20;1.00
774;DHT22;370;48.810;9.150;2023-08-30T08:46:59;21.00;1.00
774;DHT22;370;48.810;9.150;2023-08-30T08:49:26;21.70;1.00
774;DHT22;370;48.810;9.150;2023-08-30T08:51:56;21.80;1.00
774;DHT22;370;48.810;9.150;2023-08-30T08:54:23;21.90;1.00
774;DHT22;370;48.810;9.150;2023-08-30T08:56:50;22.10;1.00
774;DHT22;370;48.810;9.150;2023-08-30T08:59:16;22.30;1.00
774;DHT22;370;48.810;9.150;2023-08-30T09:01:43;23.70;1.00
774;DHT22;370;48.810;9.150;2023-08-30T09:04:11;25.20;1.00
774;DHT22;370;48.810;9.150;2023-08-30T09:06:38;26.30;1.00
774;DHT22;370;48.810;9.150;2023-08-30T09:09:08;27.10;1.00
774;DHT22;370;48.810;9.150;2023-08-30T09:11:35;28.50;1.00
774;DHT22;370;48.810;9.150;2023-08-30T09:14:02;29.60;1.00
774;DHT22;370;48.810;9.150;2023-08-30T09:16:29;30.10;1.00
774;DHT22;370;48.810;9.150;2023-08-30T09:18:59;29.70;1.00
774;DHT22;370;48.810;9.150;2023-08-30T09:21:26;29.00;1.00
774;DHT22;370;48.810;9.150;2023-08-30T09:23:59;29.40;1.00
774;DHT22;370;48.810;9.150;2023-08-30T09:26:28;29.10;1.00
774;DHT22;370;48.810;9.150;2023-08-30T09:29:01;29.90;1.00
774;DHT22;370;48.810;9.150;2023-08-30T09:31:33;30.90;1.00
774;DHT22;370;48.810;9.150;2023-08-30T09:33:59;30.30;1.00
774;DHT22;370;48.810;9.150;2023-08-30T09:36:32;30.10;1.00
774;DHT22;370;48.810;9.150;2023-08-30T09:38:59;30.50;1.00
774;DHT22;370;48.810;9.150;2023-08-30T09:41:27;30.60;1.00
774;DHT22;370;48.810;9.150;2023-08-30T09:43:54;31.30;1.00
774;DHT22;370;48.810;9.150;2023-08-30T09:46:21;32.60;1.00
774;DHT22;370;48.810;9.150;2023-08-30T09:48:49;33.80;1.00
774;DHT22;370;48.810;9.150;2023-08-30T09:51:16;35.50;1.00
774;DHT22;370;48.810;9.150;2023-08-30T09:53:49;35.10;1.00
774;DHT22;370;48.810;9.150;2023-08-30T09:56:18;33.60;1.00
774;DHT22;370;48.810;9.150;2023-08-30T09:58:47;34.10;1.00
774;DHT22;370;48.810;9.150;2023-08-30T10:01:15;34.50;1.00
774;DHT22;370;48.810;9.150;2023-08-30T10:03:42;35.90;1.00
774;DHT22;370;48.810;9.150;2023-08-30T10:06:09;34.80;1.00
774;DHT22;370;48.810;9.150;2023-08-30T10:08:36;35.00;1.00
774;DHT22;370;48.810;9.150;2023-08-30T10:11:05;35.70;1.00
774;DHT22;370;48.810;9.150;2023-08-30T10:13:34;37.20;1.00
774;DHT22;370;48.810;9.150;2023-08-30T10:16:03;36.50;1.00
774;DHT22;370;48.810;9.150;2023-08-30T10:18:32;36.40;1.00
774;DHT22;370;48.810;9.150;2023-08-30T10:21:02;36.10;1.00
774;DHT22;370;48.810;9.150;2023-08-30T10:23:33;35.10;1.00
774;DHT22;370;48.810;9.150;2023-08-30T10:26:04;34.20;1.00
774;DHT22;370;48.810;9.150;2023-08-30T10:28:31;33.70;1.00
774;DHT22;370;48.810;9.150;2023-08-30T10:30:59;33.00;1.00
774;DHT22;370;48.810;9.150;2023-08-30T10:33:27;33.60;1.00
774;DHT22;370;48.810;9.150;2023-08-30T10:36:04;34.00;1.00
774;DHT22;370;48.810;9.150;2023-08-30T10:38:32;34.20;1.00
774;DHT22;370;48.810;9.150;2023-08-30T10:41:06;35.00;1.00
774;DHT22;370;48.810;9.150;2023-08-30T10:43:35;34.80;1.00
774;DHT22;370;48.810;9.150;2023-08-30T10:46:02;33.20;1.00
774;DHT22;370;48.810;9.150;2023-08-30T10:48:38;33.50;1.00
774;DHT22;370;48.810;9.150;2023-08-30T10:51:18;34.50;1.00
774;DHT22;370;48.810;9.150;2023-08-30T10:53:55;34.50;1.00
774;DHT22;370;48.810;9.150;2023-08-30T10:56:27;33.90;1.00
774;DHT22;370;48.810;9.150;2023-08-30T10:58:55;33.90;1.00
774;DHT22;370;48.810;9.150;2023-08-30T11:01:23;34.00;1.00
774;DHT22;370;48.810;9.150;2023-08-30T11:03:52;34.50;1.00
774;DHT22;370;48.810;9.150;2023-08-30T11:06:19;34.80;1.00
774;DHT22;370;48.810;9.150;2023-08-30T11:08:47;35.70;1.00
774;DHT22;370;48.810;9.150;2023-08-30T11:11:14;37.10;1.00
774;DHT22;370;48.810;9.150;2023-08-30T11:13:41;37.70;1.00
774;DHT22;370;48.810;9.150;2023-08-30T11:16:08;37.60;1.00
774;DHT22;370;48.810;9.150;2023-08-30T11:18:38;37.00;1.00
774;DHT22;370;48.810;9.150;2023-08-30T11:21:08;36.00;1.00
774;DHT22;370;48.810;9.150;2023-08-30T11:23:35;35.50;1.00
774;DHT22;370;48.810;9.150;2023-08-30T11:26:02;34.70;1.00
774;DHT22;370;48.810;9.150;2023-08-30T11:28:30;33.20;1.00
774;DHT22;370;48.810;9.150;2023-08-30T11:30:58;31.90;1.00
774;DHT22;370;48.810;9.150;2023-08-30T11:33:24;30.70;1.00
774;DHT22;370;48.810;9.150;2023-08-30T11:35:51;28.90;1.00
774;DHT22;370;48.810;9.150;2023-08-30T11:38:20;27.30;1.00
774;DHT22;370;48.810;9.150;2023-08-30T11:40:49;26.10;1.00
774;DHT22;370;48.810;9.150;2023-08-30T11:43:17;24.70;1.00
774;DHT22;370;48.810;9.150;2023-08-30T11:45:44;23.50;1.00
774;DHT22;370;48.810;9.150;2023-08-30T11:48:11;22.80;1.00
774;DHT22;370;48.810;9.150;2023-08-30T11:50:38;22.20;1.00
774;DHT22;370;48.810;9.150;2023-08-30T11:53:06;21.60;1.00
774;DHT22;370;48.810;9.150;2023-08-30T11:55:34;21.10;1.00
774;DHT22;370;48.810;9.150;2023-08-30T11:58:02;20.70;1.00
774;DHT22;370;48.810;9.150;2023-08-30T12:00:32;20.30;1.00
774;DHT22;370;48.810;9.150;2023-08-30T12:02:59;20.10;1.00
774;DHT22;370;48.810;9.150;2023-08-30T12:05:26;19.80;1.00
774;DHT22;370;48.810;9.150;2023-08-30T12:07:53;19.60;1.00
774;DHT22;370;48.810;9.150;2023-08-30T12:10:19;19.30;1.00
774;DHT22;370;48.810;9.150;2023-08-30T12:12:47;19.00;1.00
774;DHT22;370;48.810;9.150;2023-08-30T12:15:14;18.80;1.00
774;DHT22;370;48.810;9.150;2023-08-30T12:17:42;18.80;1.90
774;DHT22;370;48.810;9.150;2023-08-30T12:20:15;18.70;4.40
774;DHT22;370;48.810;9.150;2023-08-30T12:22:43;18.70;3.90
774;DHT22;370;48.810;9.150;2023-08-30T12:25:18;18.50;4.40
774;DHT22;370;48.810;9.150;2023-08-30T12:27:46;18.40;8.00
774;DHT22;370;48.810;9.150;2023-08-30T12:30:15;18.50;10.10
774;DHT22;370;48.810;9.150;2023-08-30T12:32:43;18.70;9.30
774;DHT22;370;48.810;9.150;2023-08-30T12:35:09;18.90;3.80
774;DHT22;370;48.810;9.150;2023-08-30T12:37:36;18.90;5.10
774;DHT22;370;48.810;9.150;2023-08-30T12:40:04;18.90;9.20
774;DHT22;370;48.810;9.150;2023-08-30T12:42:31;18.90;10.70
774;DHT22;370;48.810;9.150;2023-08-30T12:44:58;19.00;10.30
774;DHT22;370;48.810;9.150;2023-08-30T12:47:26;18.80;6.90
774;DHT22;370;48.810;9.150;2023-08-30T12:49:53;18.90;9.00
774;DHT22;370;48.810;9.150;2023-08-30T12:52:20;19.20;6.40
774;DHT22;370;48.810;9.150;2023-08-30T12:54:46;19.80;7.90
774;DHT22;370;48.810;9.150;2023-08-30T12:57:13;20.10;2.80
774;DHT22;370;48.810;9.150;2023-08-30T12:59:40;20.40;1.00
774;DHT22;370;48.810;9.150;2023-08-30T13:02:06;20.60;1.00
774;DHT22;370;48.810;9.150;2023-08-30T13:04:35;20.90;1.00
774;DHT22;370;48.810;9.150;2023-08-30T13:07:04;21.10;1.00
774;DHT22;370;48.810;9.150;2023-08-30T13:09:31;21.30;1.00
774;DHT22;370;48.810;9.150;2023-08-30T13:11:57;21.70;1.00
774;DHT22;370;48.810;9.150;2023-08-30T13:14:24;22.10;1.00
774;DHT22;370;48.810;9.150;2023-08-30T13:16:51;22.30;1.00
774;DHT22;370;48.810;9.150;2023-08-30T13:19:17;22.70;1.00
774;DHT22;370;48.810;9.150;2023-08-30T13:21:46;23.40;1.00
774;DHT22;370;48.810;9.150;2023-08-30T13:24:12;24.70;1.00
774;DHT22;370;48.810;9.150;2023-08-30T13:26:39;25.50;1.00
774;DHT22;370;48.810;9.150;2023-08-30T13:29:06;27.80;1.00
774;DHT22;370;48.810;9.150;2023-08-30T13:31:33;29.90;1.00
774;DHT22;370;48.810;9.150;2023-08-30T13:33:59;31.60;1.00
774;DHT22;370;48.810;9.150;2023-08-30T13:36:26;33.40;1.00
774;DHT22;370;48.810;9.150;2023-08-30T13:38:54;33.80;1.00
774;DHT22;370;48.810;9.150;2023-08-30T13:41:21;34.00;1.00
774;DHT22;370;48.810;9.150;2023-08-30T13:43:48;35.40;1.00
774;DHT22;370;48.810;9.150;2023-08-30T13:46:15;36.20;1.00
774;DHT22;370;48.810;9.150;2023-08-30T13:48:42;35.90;1.00
774;DHT22;370;48.810;9.150;2023-08-30T13:51:09;35.70;1.00
774;DHT22;370;48.810;9.150;2023-08-30T13:53:36;35.40;1.00
774;DHT22;370;48.810;9.150;2023-08-30T13:56:05;35.90;1.00
774;DHT22;370;48.810;9.150;2023-08-30T13:58:31;36.40;1.00
774;DHT22;370;48.810;9.150;2023-08-30T14:00:58;36.20;1.00
774;DHT22;370;48.810;9.150;2023-08-30T14:03:25;35.10;1.00
774;DHT22;370;48.810;9.150;2023-08-30T14:05:52;34.10;1.00
774;DHT22;370;48.810;9.150;2023-08-30T14:08:18;31.80;1.00
774;DHT22;370;48.810;9.150;2023-08-30T14:10:45;30.60;1.00
774;DHT22;370;48.810;9.150;2023-08-30T14:13:13;29.10;1.00
774;DHT22;370;48.810;9.150;2023-08-30T14:15:40;27.90;1.00
774;DHT22;370;48.810;9.150;2023-08-30T14:18:08;26.80;1.00
774;DHT22;370;48.810;9.150;2023-08-30T14:20:35;26.00;1.00
774;DHT22;370;48.810;9.150;2023-08-30T14:23:01;25.50;1.00
774;DHT22;370;48.810;9.150;2023-08-30T14:25:29;24.90;1.00
774;DHT22;370;48.810;9.150;2023-08-30T14:27:56;24.40;1.00
774;DHT22;370;48.810;9.150;2023-08-30T14:30:24;24.00;1.00
774;DHT22;370;48.810;9.150;2023-08-30T14:32:51;23.60;1.00
774;DHT22;370;48.810;9.150;2023-08-30T14:35:18;23.30;1.00
774;DHT22;370;48.810;9.150;2023-08-30T14:37:46;23.10;1.00
774;DHT22;370;48.810;9.150;2023-08-30T14:40:13;22.80;1.00
774;DHT22;370;48.810;9.150;2023-08-30T14:42:40;22.50;1.00
774;DHT22;370;48.810;9.150;2023-08-30T14:45:07;22.20;1.00
774;DHT22;370;48.810;9.150;2023-08-30T14:47:36;22.10;1.00
774;DHT22;370;48.810;9.150;2023-08-30T14:50:03;21.70;1.00
774;DHT22;370;48.810;9.150;2023-08-30T14:52:30;21.30;1.00
774;DHT22;370;48.810;9.150;2023-08-30T14:54:56;21.10;1.00
774;DHT22;370;48.810;9.150;2023-08-30T14:57:23;20.90;1.00
774;DHT22;370;48.810;9.150;2023-08-30T14:59:52;20.60;1.00
774;DHT22;370;48.810;9.150;2023-08-30T15:02:19;20.50;1.00
774;DHT22;370;48.810;9.150;2023-08-30T15:04:47;20.30;1.00
774;DHT22;370;48.810;9.150;2023-08-30T15:07:14;20.30;1.00
774;DHT22;370;48.810;9.150;2023-08-30T15:09:41;20.40;1.00
774;DHT22;370;48.810;9.150;2023-08-30T15:12:08;20.60;1.00
774;DHT22;370;48.810;9.150;2023-08-30T15:14:35;20.80;1.00
774;DHT22;370;48.810;9.150;2023-08-30T15:17:02;20.90;1.00
774;DHT22;370;48.810;9.150;2023-08-30T15:19:28;21.10;1.00
774;DHT22;370;48.810;9.150;2023-08-30T15:21:57;21.20;1.00
774;DHT22;370;48.810;9.150;2023-08-30T15:24:23;21.40;1.00
774;DHT22;370;48.810;9.150;2023-08-30T15:26:51;21.50;1.00
774;DHT22;370;48.810;9.150;2023-08-30T15:29:18;21.60;1.00
774;DHT22;370;48.810;9.150;2023-08-30T15:31:44;21.70;1.00
774;DHT22;370;48.810;9.150;2023-08-30T15:34:17;21.70;1.00
774;DHT22;370;48.810;9.150;2023-08-30T15:36:43;21.80;1.00
774;DHT22;370;48.810;9.150;2023-08-30T15:39:13;22.10;1.00
774;DHT22;370;48.810;9.150;2023-08-30T15:41:42;22.50;1.00
774;DHT22;370;48.810;9.150;2023-08-30T15:44:10;22.70;1.00
774;DHT22;370;48.810;9.150;2023-08-30T15:46:37;23.20;1.00
774;DHT22;370;48.810;9.150;2023-08-30T15:49:04;23.40;1.00
774;DHT22;370;48.810;9.150;2023-08-30T15:51:31;23.80;1.00
774;DHT22;370;48.810;9.150;2023-08-30T15:53:58;24.10;1.00
774;DHT22;370;48.810;9.150;2023-08-30T15:56:27;24.90;1.00
774;DHT22;370;48.810;9.150;2023-08-30T15:58:54;25.30;1.00
774;DHT22;370;48.810;9.150;2023-08-30T16:01:20;25.80;1.00
774;DHT22;370;48.810;9.150;2023-08-30T16:03:47;26.30;1.00
774;DHT22;370;48.810;9.150;2023-08-30T16:06:14;26.70;1.00
774;DHT22;370;48.810;9.150;2023-08-30T16:08:41;26.30;1.00
774;DHT22;370;48.810;9.150;2023-08-30T16:11:07;25.50;1.00
774;DHT22;370;48.810;9.150;2023-08-30T16:13:35;24.50;1.00
774;DHT22;370;48.810;9.150;2023-08-30T16:16:02;23.90;1.00
774;DHT22;370;48.810;9.150;2023-08-30T16:18:29;23.40;1.00
774;DHT22;370;48.810;9.150;2023-08-30T16:20:57;22.90;1.00
774;DHT22;370;48.810;9.150;2023-08-30T16:23:24;22.50;1.00
774;DHT22;370;48.810;9.150;2023-08-30T16:25:50;22.30;1.00
774;DHT22;370;48.810;9.150;2023-08-30T16:28:17;22.20;1.00
774;DHT22;370;48.810;9.150;2023-08-30T16:30:45;22.50;1.00
774;DHT22;370;48.810;9.150;2023-08-30T16:33:12;22.80;1.00
774;DHT22;370;48.810;9.150;2023-08-30T16:35:43;23.00;1.00
774;DHT22;370;48.810;9.150;2023-08-30T16:38:10;22.80;1.00
774;DHT22;370;48.810;9.150;2023-08-30T16:40:37;22.60;1.00
774;DHT22;370;48.810;9.150;2023-08-30T16:43:04;22.40;1.00
774;DHT22;370;48.810;9.150;2023-08-30T16:45:31;22.30;1.00
774;DHT22;370;48.810;9.150;2023-08-30T16:47:59;22.20;1.00
774;DHT22;370;48.810;9.150;2023-08-30T16:50:26;22.00;1.00